OPSK

Sukkur Airport

Mirpur Khas, Pakistan
TAF OPSK 211530Z 2118/2218 18008G18KT 5000 HZ SCT030 TEMP0 2200/2204 18010KT 4000 HZ SCT030 FM220600 18008G18KT 6000 SCT030
Issued Valid From Valid To
Jul-21 @ 15:30 UTC
(7 hours ago)
Jul-21 @ 18:00 UTC
(5 hours ago)
Jul-22 @ 18:00 UTC
(in 19 hours)
Jul-21 @ 18:00 to Jul-22 @ 06:00
TAF OPSK 211530Z 2118/2218 18008G18KT 5000 HZ SCT030 TEMP0 2200/2204 18010KT 4000 HZ SCT030
Wind Visibility Clouds Conditions
180° at 8 knots
 Gusting to 18 knots
5,005 meters
  • Scattered at 3,000' AGL
  • Scattered at 3,000' AGL
  • Haze
  • Haze
From Jul-22 @ 06:00 to Jul-22 @ 18:00
FM220600 18008G18KT 6000 SCT030
Wind Visibility Clouds
180° at 8 knots
 Gusting to 18 knots
6,003 meters
  • Scattered at 3,000' AGL
TAF OPSK 211530Z 2118/2218 18008G18KT 5000 HZ SCT030 TEMP0 2200/2204 18010KT 4000 HZ SCT030 FM220600 18008G18KT 6000 SCT030
Issued Jul-21 @ 15:30 UTC
(7 hours ago)
Valid From Jul-21 @ 18:00 UTC
(5 hours ago)
Valid To Jul-22 @ 18:00 UTC
(in 19 hours)
Jul-21 @ 18:00 - Jul-22 @ 06:00
Wind Visibility
180° at 8 knots
 Gusting to 18 knots
5,005 meters
Clouds
  • Scattered at 3,000' AGL
  • Scattered at 3,000' AGL
Conditions
  • Haze
  • Haze
From Jul-22 @ 06:00 - Jul-22 @ 18:00
Wind Visibility
180° at 8 knots
 Gusting to 18 knots
6,003 meters
Clouds
  • Scattered at 3,000' AGL